Latest Weather Observations for Pirlangimpi

IDD60801

Issued at 7:31 pm CST Thursday 5 March 2015 (issued every 30 minutes, with the page automatically refreshed every 10 minutes)

About weather observations | Map of weather stations | Latest weather observations for NT | Other Formats
Station Details ID: 014142 Name: PIRLANGIMPI AIRPORT Lat: -11.40 Lon: 130.42 Height: 18.3 m
Data from the previous 72 hours. | See also: Recent months at Pirlangimpi
Date/Time
CST
Temp
°C
App
Temp
°C
Dew
Point
Rel
Hum
%
Delta-T
°C
Wind Press
QNH
hPa
Press
MSL
hPa
Rain
since 9 am
mm
Dir
 
Spd
km/h
Gust
km/h
Spd
kts
Gust
kts
05/07:30pm 25.8 31.8 24.9 95 0.6 SW 2 4 1 2 1007.5 1007.4 9.6
05/07:00pm 25.8 31.8 24.9 95 0.6 WSW 2 2 1 1 1007.1 1007.0 9.6
05/06:30pm 25.9 32.4 25.0 95 0.6 CALM 0 0 0 0 1006.7 1006.6 9.6
05/06:00pm 25.8 32.3 25.1 96 0.5 CALM 0 0 0 0 1006.4 1006.3 9.6
05/05:30pm 25.4 31.5 24.5 95 0.6 CALM 0 2 0 1 1006.2 1006.1 9.6
05/05:00pm 24.8 30.2 23.8 94 0.7 S 2 4 1 2 1006.3 1006.2 9.6
05/04:30pm 24.8 28.9 23.0 90 1.2 NE 6 9 3 5 1007.0 1006.9 8.2
05/04:00pm 26.0 30.5 23.7 87 1.6 S 6 13 3 7 1007.2 1007.1 4.8
05/03:45pm 27.3 29.6 22.7 76 3.1 SW 15 30 8 16 1007.2 1007.1 0.8
05/03:30pm 32.4 38.0 25.7 68 4.8 NW 7 15 4 8 1006.0 1005.9 0.0
05/03:00pm 33.2 38.9 27.0 70 4.5 NNW 11 19 6 10 1006.1 1006.0 0.0
05/02:30pm 33.6 39.9 27.4 70 4.5 NNW 9 19 5 10 1006.1 1006.0 0.0
05/02:00pm 33.0 38.0 26.0 66 5.0 NW 11 19 6 10 1006.6 1006.5 0.0
05/01:30pm 34.0 40.8 28.0 71 4.4 NNW 9 15 5 8 1007.0 1006.9 0.0
05/01:00pm 33.0 39.1 26.5 68 4.7 NW 7 13 4 7 1007.5 1007.4 0.0
05/12:30pm 32.7 39.6 27.7 75 3.7 NW 7 15 4 8 1008.3 1008.2 0.0
05/12:00pm 32.2 37.5 25.0 65 5.1 NW 6 11 3 6 1008.6 1008.5 0.0
05/11:30am 31.7 36.9 24.8 67 4.9 SW 6 7 3 4 1009.0 1008.9 0.0
05/11:00am 31.0 36.6 25.4 72 4.0 SW 6 9 3 5 1009.2 1009.1 0.0
05/10:30am 30.6 36.2 25.7 75 3.5 SW 7 9 4 5 1009.4 1009.3 0.0
05/10:00am 29.8 35.4 25.8 79 2.8 SSW 7 11 4 6 1009.5 1009.4 0.0
05/09:30am 28.7 35.5 26.1 86 1.8 W 2 6 1 3 1009.7 1009.6 0.0
05/09:00am 27.5 34.1 26.4 94 0.8 NW 4 7 2 4 1009.4 1009.3 60.6
05/08:30am 26.3 33.0 26.0 98 0.2 SSW 2 4 1 2 1009.3 1009.2 60.6
05/08:00am 25.3 31.8 25.0 98 0.2 CALM 0 0 0 0 1009.0 1008.9 60.6
05/07:30am 24.7 30.4 24.4 98 0.2 SE 2 4 1 2 1008.9 1008.8 60.6
05/07:00am 24.6 29.9 24.3 98 0.2 SE 4 6 2 3 1008.7 1008.6 60.6
05/06:30am 24.5 30.5 24.2 98 0.2 CALM 0 0 0 0 1008.1 1008.0 60.6
05/06:00am 24.6 30.6 24.3 98 0.2 CALM 0 0 0 0 1007.8 1007.7 60.6
05/05:30am 24.7 30.8 24.4 98 0.2 CALM 0 0 0 0 1007.9 1007.8 60.6
05/05:00am 24.5 29.7 24.2 98 0.2 ENE 4 4 2 2 1008.0 1007.9 60.6
05/04:30am 24.4 29.9 24.1 98 0.2 E 2 2 1 1 1008.0 1007.9 60.6
05/04:00am 24.2 29.5 23.7 97 0.3 NE 2 6 1 3 1007.9 1007.8 60.6
05/03:30am 24.1 29.7 23.6 97 0.3 CALM 0 0 0 0 1007.9 1007.8 60.6
05/03:00am 24.1 29.7 23.6 97 0.3 CALM 0 0 0 0 1007.7 1007.6 60.6
05/02:30am 24.2 29.9 23.7 97 0.3 CALM 0 0 0 0 1008.0 1007.9 60.6
05/02:00am 24.2 29.9 23.7 97 0.3 CALM 0 0 0 0 1008.5 1008.4 60.4
05/01:30am 24.2 29.9 23.7 97 0.3 CALM 0 0 0 0 1008.7 1008.6 60.4
05/01:00am 24.1 29.3 23.6 97 0.3 NE 2 4 1 2 1009.0 1008.9 60.4
05/12:30am 24.2 29.9 23.7 97 0.3 CALM 0 0 0 0 1009.3 1009.2 60.4
05/12:00am 24.3 30.0 23.8 97 0.3 CALM 0 2 0 1 1009.8 1009.7 60.4
 
Date/Time
CST
Temp
°C
App
Temp
°C
Dew
Point
Rel
Hum
%
Delta-T
°C
Wind Press
QNH
hPa
Press
MSL
hPa
Rain
since 9 am
mm
Dir
 
Spd
km/h
Gust
km/h
Spd
kts
Gust
kts
04/11:30pm 24.1 29.3 23.6 97 0.3 NE 2 2 1 1 1009.9 1009.8 60.4
04/11:00pm 24.2 29.9 23.7 97 0.3 CALM 0 0 0 0 1009.8 1009.7 60.4
04/10:30pm 24.3 29.7 23.8 97 0.3 NE 2 4 1 2 1009.5 1009.4 60.4
04/10:00pm 24.4 29.8 23.9 97 0.3 NE 2 6 1 3 1009.3 1009.2 60.4
04/09:30pm 24.4 30.2 23.9 97 0.3 CALM 0 0 0 0 1009.2 1009.1 60.4
04/09:00pm 24.4 30.1 23.7 96 0.5 CALM 0 0 0 0 1009.1 1009.0 60.4
04/08:30pm 24.7 30.7 24.2 97 0.3 CALM 0 0 0 0 1008.8 1008.7 60.4
04/08:00pm 24.7 30.7 24.2 97 0.3 CALM 0 0 0 0 1008.5 1008.4 60.4
04/07:30pm 24.8 30.4 24.3 97 0.3 SE 2 4 1 2 1008.1 1008.0 60.4
04/07:00pm 24.8 30.4 24.3 97 0.3 NNW 2 6 1 3 1007.6 1007.5 60.4
04/06:30pm 24.9 31.0 24.4 97 0.3 CALM 0 0 0 0 1007.2 1007.1 60.4
04/06:00pm 24.6 30.1 24.1 97 0.3 NE 2 4 1 2 1007.2 1007.1 60.4
04/05:30pm 24.6 29.7 24.1 97 0.3 ENE 4 6 2 3 1007.3 1007.2 59.2
04/05:00pm 24.4 28.9 23.9 97 0.3 NE 7 11 4 6 1007.4 1007.3 58.4
04/04:30pm 24.1 28.8 23.4 96 0.5 NNE 4 7 2 4 1007.1 1007.0 54.8
04/04:00pm 24.5 27.2 23.5 94 0.7 S 15 24 8 13 1007.3 1007.2 40.2
04/03:30pm 26.3 30.1 24.7 91 1.1 SE 13 22 7 12 1006.6 1006.5 15.4
04/03:00pm 28.7 32.4 25.1 81 2.5 NNW 15 24 8 13 1006.2 1006.1 2.8
04/02:30pm 32.3 37.0 25.6 67 4.8 NW 11 20 6 11 1006.2 1006.1 2.2
04/02:00pm 32.0 37.1 26.1 71 4.2 NW 11 19 6 10 1006.8 1006.7 2.2
04/01:30pm 31.4 37.1 26.4 75 3.6 NW 9 17 5 9 1007.1 1007.0 2.2
04/01:00pm 29.7 34.8 26.1 81 2.6 NW 11 20 6 11 1007.8 1007.7 2.2
04/12:30pm 30.4 35.9 26.1 78 3.1 NW 9 20 5 11 1008.1 1008.0 2.2
04/12:00pm 28.8 35.3 26.2 86 1.9 WNW 4 7 2 4 1008.6 1008.5 2.2
04/11:30am 31.0 36.4 25.4 72 4.0 NW 7 13 4 7 1008.6 1008.5 0.8
04/11:00am 30.9 36.3 25.5 73 3.8 WNW 7 13 4 7 1008.7 1008.6 0.8
04/10:30am 29.6 35.1 25.6 79 2.8 NW 7 15 4 8 1008.8 1008.7 0.8
04/10:00am 28.5 34.7 26.3 88 1.6 NNW 6 13 3 7 1008.7 1008.6 0.8
04/09:30am 30.1 36.5 26.9 83 2.3 NW 7 15 4 8 1008.6 1008.5 0.0
04/09:00am 28.4 34.9 26.2 88 1.6 NW 4 9 2 5 1008.6 1008.5 3.4
04/08:30am 27.1 34.2 26.6 97 0.4 NNW 2 4 1 2 1008.1 1008.0 3.4
04/08:00am 26.0 32.4 25.5 97 0.4 N 2 6 1 3 1007.9 1007.8 3.4
04/07:30am 25.3 31.6 24.8 97 0.3 CALM 0 0 0 0 1007.7 1007.6 3.4
04/07:00am 24.9 30.5 24.2 96 0.5 ENE 2 2 1 1 1007.4 1007.3 3.4
04/06:30am 24.8 30.6 23.9 95 0.6 CALM 0 2 0 1 1006.8 1006.7 3.4
04/06:00am 25.0 30.1 24.1 95 0.6 NE 4 6 2 3 1006.3 1006.2 3.4
04/05:30am 25.2 31.0 24.5 96 0.5 N 2 7 1 4 1006.1 1006.0 3.4
04/05:00am 25.2 30.6 24.5 96 0.5 NNE 4 7 2 4 1005.8 1005.7 3.4
04/04:30am 25.3 30.8 24.6 96 0.5 NNE 4 6 2 3 1005.7 1005.6 3.4
04/04:00am 25.0 30.1 24.1 95 0.6 NE 4 6 2 3 1005.7 1005.6 3.4
04/03:30am 25.0 30.1 24.1 95 0.6 NE 4 6 2 3 1006.0 1005.9 3.4
04/03:00am 25.1 30.3 24.2 95 0.6 NE 4 4 2 2 1006.4 1006.3 3.4
04/02:30am 25.3 31.0 24.4 95 0.6 NNE 2 6 1 3 1006.4 1006.3 3.4
04/02:00am 25.4 30.8 24.5 95 0.6 N 4 7 2 4 1006.6 1006.5 3.4
04/01:30am 25.3 30.6 24.4 95 0.6 NE 4 6 2 3 1006.7 1006.6 3.4
04/01:00am 25.4 30.7 24.4 94 0.7 NNE 4 6 2 3 1006.9 1006.8 3.4
04/12:30am 25.4 31.1 24.4 94 0.7 NNE 2 6 1 3 1007.1 1007.0 3.4
04/12:00am 25.6 31.1 24.6 94 0.7 N 4 7 2 4 1007.2 1007.1 3.4
 
Date/Time
CST
Temp
°C
App
Temp
°C
Dew
Point
Rel
Hum
%
Delta-T
°C
Wind Press
QNH
hPa
Press
MSL
hPa
Rain
since 9 am
mm
Dir
 
Spd
km/h
Gust
km/h
Spd
kts
Gust
kts
03/11:30pm 25.8 31.3 24.6 93 0.8 NNE 4 6 2 3 1007.6 1007.5 3.4
03/11:00pm 25.9 31.3 24.5 92 1.0 N 4 7 2 4 1007.7 1007.6 3.4
03/10:30pm 26.0 31.5 24.6 92 1.0 NE 4 6 2 3 1007.5 1007.4 3.4
03/10:00pm 26.0 31.5 24.6 92 1.0 NNE 4 7 2 4 1007.2 1007.1 3.4
03/09:30pm 26.2 31.7 24.6 91 1.1 NE 4 6 2 3 1006.8 1006.7 3.4
03/09:00pm 26.4 31.9 24.6 90 1.3 NE 4 6 2 3 1006.4 1006.3 3.4
03/08:30pm 26.7 32.6 24.7 89 1.4 NE 2 4 1 2 1006.1 1006.0 3.4
03/08:00pm 26.9 31.9 24.5 87 1.7 N 6 11 3 6 1005.8 1005.7 3.4
03/07:30pm 27.0 32.1 24.6 87 1.7 N 6 9 3 5 1005.4 1005.3 3.4
03/07:00pm 27.2 32.7 24.7 86 1.7 N 4 9 2 5 1004.9 1004.8 3.4
03/06:30pm 27.5 32.4 24.6 84 2.0 NNW 7 13 4 7 1004.5 1004.4 3.4
03/06:00pm 27.9 32.7 24.5 82 2.4 NNW 7 17 4 9 1004.2 1004.1 3.4
03/05:30pm 28.6 33.9 25.0 81 2.5 NNW 6 13 3 7 1004.3 1004.2 3.4
03/05:00pm 29.3 33.7 25.1 78 3.0 NW 11 22 6 12 1004.1 1004.0 3.4
03/04:30pm 29.8 34.9 26.2 81 2.6 NNW 11 19 6 10 1003.9 1003.8 3.4
03/04:00pm 29.1 33.9 25.7 82 2.4 NNW 11 20 6 11 1003.9 1003.8 3.4
03/03:30pm 27.6 33.3 25.6 89 1.4 NNW 6 9 3 5 1004.3 1004.2 3.4
03/03:00pm 27.2 32.9 25.6 91 1.1 N 6 15 3 8 1004.7 1004.6 3.4
03/02:30pm 28.5 33.8 25.3 83 2.3 N 7 28 4 15 1005.0 1004.9 2.0
03/02:00pm 28.9 35.2 27.3 91 1.2 NE 9 19 5 10 1005.0 1004.9 2.0
03/01:30pm 31.3 36.6 25.2 70 4.3 NE 7 13 4 7 1005.2 1005.1 0.0
03/01:00pm 31.5 35.7 25.4 70 4.3 ENE 13 22 7 12 1005.7 1005.6 0.0
03/12:30pm 31.5 36.6 25.6 71 4.2 NE 9 20 5 11 1006.0 1005.9 0.0
03/12:00pm 31.0 36.6 25.8 74 3.7 NNE 7 17 4 9 1006.1 1006.0 0.0
03/11:30am 30.9 36.5 25.7 74 3.7 NE 7 15 4 8 1006.5 1006.4 0.0
03/11:00am 30.8 35.2 25.6 74 3.7 ENE 13 20 7 11 1006.6 1006.5 0.0
03/10:30am 31.0 35.2 26.0 74 3.6 E 15 26 8 14 1006.6 1006.5 0.0
03/10:00am 30.4 34.9 25.2 74 3.7 ENE 11 19 6 10 1006.8 1006.7 0.0
03/09:30am 29.9 35.0 25.6 78 3.0 ENE 9 15 5 8 1006.4 1006.3 0.0
03/09:00am 28.6 34.1 25.6 84 2.1 ENE 7 13 4 7 1006.4 1006.3 10.2
03/08:30am 27.1 32.5 25.5 91 1.1 E 7 17 4 9 1005.9 1005.8 10.2
03/08:00am 25.9 31.3 25.4 97 0.4 E 7 9 4 5 1005.4 1005.3 10.2
03/07:30am 24.4 29.8 23.9 97 0.3 NE 2 6 1 3 1005.2 1005.1 10.2
03/07:00am 23.8 28.7 23.1 96 0.5 NNE 2 4 1 2 1004.8 1004.7 10.2
03/06:30am 23.8 29.1 23.1 96 0.5 CALM 0 0 0 0 1004.2 1004.1 10.2
03/06:00am 23.9 28.5 23.2 96 0.5 SE 4 6 2 3 1003.9 1003.8 10.2
03/05:30am 23.8 28.7 23.1 96 0.5 SSE 2 4 1 2 1003.7 1003.6 10.2
03/05:00am 24.1 29.5 23.2 95 0.6 CALM 0 0 0 0 1003.6 1003.5 10.2
03/04:30am 24.2 29.2 23.2 94 0.7 E 2 4 1 2 1003.6 1003.5 10.2
03/04:00am 24.4 29.9 23.4 94 0.7 CALM 0 2 0 1 1003.5 1003.4 10.2
03/03:30am 24.7 29.9 23.5 93 0.8 ESE 2 4 1 2 1003.6 1003.5 10.2
03/03:00am 25.1 30.1 23.9 93 0.8 SE 4 7 2 4 1003.7 1003.6 10.2
03/02:30am 25.3 30.1 24.1 93 0.8 S 6 6 3 3 1004.1 1004.0 10.2
03/02:00am 25.6 31.1 24.6 94 0.7 WSW 4 9 2 5 1004.7 1004.6 10.2
03/01:30am 25.3 30.6 24.3 94 0.7 NW 4 6 2 3 1004.9 1004.8 10.2
03/01:00am 25.3 30.6 24.3 94 0.7 WNW 4 7 2 4 1005.5 1005.4 10.2
03/12:30am 24.6 30.2 23.6 94 0.7 CALM 0 0 0 0 1005.7 1005.6 10.2
03/12:00am 24.4 29.0 23.2 93 0.8 NE 4 6 2 3 1005.8 1005.7 10.2
 
Date/Time
CST
Temp
°C
App
Temp
°C
Dew
Point
Rel
Hum
%
Delta-T
°C
Wind Press
QNH
hPa
Press
MSL
hPa
Rain
since 9 am
mm
Dir
 
Spd
km/h
Gust
km/h
Spd
kts
Gust
kts
02/11:30pm 24.5 30.1 23.5 94 0.7 CALM 0 2 0 1 1006.0 1005.9 10.2
02/11:00pm 24.5 29.9 23.3 93 0.8 CALM 0 0 0 0 1006.1 1006.0 10.2
02/10:30pm 24.5 29.3 22.9 91 1.1 NNE 2 6 1 3 1006.0 1005.9 10.2
02/10:00pm 24.8 30.0 22.9 89 1.3 CALM 0 0 0 0 1005.7 1005.6 10.2
02/09:30pm 25.2 30.3 23.3 89 1.3 S 2 6 1 3 1005.1 1005.0 10.2
02/09:00pm 25.7 30.5 22.8 84 2.0 WSW 2 4 1 2 1004.4 1004.3 10.2
02/08:30pm 26.5 30.2 23.2 82 2.3 SW 9 15 5 8 1004.8 1004.7 10.2
02/08:00pm 26.8 32.9 24.5 87 1.6 CALM 0 4 0 2 1004.9 1004.8 10.2

Other Formats:

Comma delimited format used in spreadsheet applications
http://www.bom.gov.au/fwo/IDD60801/IDD60801.94119.axf

JavaScript Object Notation format (JSON) in row-major order
http://www.bom.gov.au/fwo/IDD60801/IDD60801.94119.json